Terminal Aerodrome Forecast
Issued by NWS Charleston, WV

Current Version | Previous Version | Graphics & Text | Print | Product List | Glossary On
Versions: 1 2 3 4 5 6 7 8 9 10 11 12 13 14 15 16 17 18 19 20 21 22
732
FTUS41 KRLX 251319 AAA
TAFBKW
TAF AMD
KBKW 251319Z 2513/2612 15004KT P6SM VCSH BKN025 BKN070
     FM251500 26008KT P6SM BKN045
     FM252300 22004KT P6SM SCT045
     FM260300 16003KT P6SM SCT070=

USA.gov is the U.S. government's official web portal to all federal, state and local government web resources and services.